Time;durP1;ratioP1;P1;durP2;ratioP2;P2;SDS_P1;SDS_P2;PMS_P1;PMS_P2;Temp;Humidity;BMP_temperature;BMP_pressure;BME280_temperature;BME280_humidity;BME280_pressure;Samples;Min_cycle;Max_cycle;Signal;HPM_P1;HPM_P2
2022/02/10 00:07:01;;;;;;;20.27;12.20;;;;;;;7.36;68.86;100946.19;2193863;81;31025;-63
2022/02/10 00:17:04;;;;;;;15.03;9.63;;;;;;;7.28;69.02;100948.19;2169261;81;27621;-63
2022/02/10 00:36:00;;;;;;;13.00;8.48;;;;;;;7.15;69.60;100959.13;2159748;81;29167;-64
2022/02/10 00:39:13;;;;;;;18.23;11.28;;;;;;;7.16;69.57;100957.36;2156674;82;31147;-64
2022/02/10 00:42:04;;;;;;;26.17;13.83;;;;;;;7.16;69.74;100957.36;2156601;82;34391;-64
2022/02/10 00:45:07;;;;;;;20.62;12.15;;;;;;;7.16;69.70;100958.69;2156991;81;30619;-64
2022/02/10 00:48:11;;;;;;;26.23;14.00;;;;;;;7.17;69.78;100967.11;2178092;81;27715;-64
2022/02/10 00:51:13;;;;;;;18.90;11.22;;;;;;;7.19;69.85;100963.95;2178500;81;28649;-63
2022/02/10 00:54:19;;;;;;;24.47;12.65;;;;;;;7.19;70.02;100965.28;2178309;81;32233;-63
2022/02/10 00:57:21;;;;;;;20.12;11.18;;;;;;;7.22;69.89;100964.32;2157942;81;34222;-63
2022/02/10 01:30:23;;;;;;;12.98;9.45;;;;;;;7.25;70.25;100929.60;2076429;85;33448;-64
2022/02/10 01:33:26;;;;;;;21.10;11.80;;;;;;;7.22;70.35;100927.88;2076084;85;30372;-64
2022/02/10 01:36:30;;;;;;;20.27;11.50;;;;;;;7.20;70.35;100922.17;2067505;85;27737;-65
2022/02/10 01:39:36;;;;;;;20.37;11.88;;;;;;;7.20;70.42;100918.18;2033266;87;28669;-64
2022/02/10 02:05:57;;;;;;;31.15;19.70;;;;;;;7.13;70.63;100895.67;2089320;84;30519;-62
2022/02/10 02:08:59;;;;;;;27.10;17.77;;;;;;;7.10;70.58;100889.56;2111857;82;27792;-62
2022/02/10 02:12:01;;;;;;;27.13;17.77;;;;;;;7.09;70.55;100889.14;2117030;83;28915;-62
2022/02/10 02:15:04;;;;;;;20.15;14.23;;;;;;;7.07;70.58;100890.96;2125947;83;32287;-62
2022/02/10 02:18:06;;;;;;;23.92;15.30;;;;;;;7.05;70.63;100892.79;2125015;83;34168;-63
2022/02/10 02:21:11;;;;;;;18.85;12.47;;;;;;;7.04;70.68;100884.37;2125470;82;29640;-63
2022/02/10 02:24:20;;;;;;;19.75;12.23;;;;;;;7.04;70.69;100875.05;2125137;83;27545;-63
2022/02/10 02:27:22;;;;;;;25.27;17.23;;;;;;;7.04;70.74;100874.61;2124723;83;28708;-63
2022/02/10 02:30:40;;;;;;;21.90;13.72;;;;;;;7.05;70.82;100875.03;2132663;82;32416;-63
2022/02/10 02:34:04;;;;;;;19.45;12.23;;;;;;;7.07;70.82;100869.66;2120704;83;34436;-63
2022/02/10 02:37:24;;;;;;;23.00;14.75;;;;;;;7.07;70.82;100868.31;2118795;83;30392;-63
2022/02/10 03:06:56;;;;;;;26.25;13.80;;;;;;;7.30;70.79;100851.27;2233228;79;34213;-63
2022/02/10 03:13:17;;;;;;;10.72;7.50;;;;;;;7.35;70.73;100855.61;2232435;79;27605;-63
2022/02/10 04:12:07;;;;;;;11.95;8.15;;;;;;;7.58;69.72;100855.83;2078916;85;33159;-62
2022/02/10 04:25:05;;;;;;;10.13;7.83;;;;;;;7.60;69.50;100855.81;2023242;84;32361;-62
2022/02/10 04:53:12;;;;;;;13.22;8.73;;;;;;;7.68;69.27;100835.59;2173507;81;28207;-63
2022/02/10 04:56:59;;;;;;;12.80;7.43;;;;;;;7.68;69.33;100837.78;2189752;81;31420;-62
2022/02/10 05:16:17;;;;;;;13.32;8.30;;;;;;;7.64;69.24;100813.92;2016727;88;34185;-62
2022/02/10 05:35:34;;;;;;;12.85;8.40;;;;;;;7.55;69.33;100793.73;2009518;88;29349;-63
2022/02/10 05:38:41;;;;;;;13.05;8.60;;;;;;;7.52;69.34;100797.38;1979067;89;27909;-63
2022/02/10 05:42:12;;;;;;;15.75;9.18;;;;;;;7.51;69.31;100797.40;2001222;88;29449;-63
2022/02/10 07:04:03;;;;;;;23.32;13.18;;;;;;;7.80;68.68;100767.20;2210806;80;29269;-62
2022/02/10 07:47:04;;;;;;;25.17;13.50;;;;;;;8.59;68.04;100751.38;2113762;83;30555;-62
2022/02/10 07:49:49;;;;;;;24.98;12.70;;;;;;;8.67;68.03;100743.09;2130663;81;27770;-62
2022/02/10 09:08:09;;;;;;;13.93;8.68;;;;;;;11.15;63.96;100697.60;2051909;86;29807;-63
2022/02/10 09:14:37;;;;;;;19.25;9.08;;;;;;;11.13;63.65;100699.02;2120913;82;29874;-64
2022/02/10 09:21:03;;;;;;;13.58;8.78;;;;;;;11.13;63.47;100686.07;2221389;79;32984;-70
2022/02/10 09:57:07;;;;;;;16.80;10.63;;;;;;;11.13;63.00;100652.09;2117402;83;29694;-65
2022/02/10 10:03:24;;;;;;;16.52;10.30;;;;;;;11.29;63.02;100641.51;2152657;82;29899;-64
2022/02/10 10:06:29;;;;;;;18.48;10.53;;;;;;;11.46;63.05;100634.47;2153191;81;32019;-64
2022/02/10 10:09:43;;;;;;;22.67;11.00;;;;;;;11.62;62.83;100624.73;2116468;84;32976;-65
2022/02/10 10:13:29;;;;;;;22.02;11.60;;;;;;;11.78;62.57;100620.84;2116607;82;29741;-68
2022/02/10 10:23:35;;;;;;;17.67;11.12;;;;;;;12.50;62.47;100589.02;2156481;82;33153;-66
2022/02/10 10:26:50;;;;;;;14.15;8.38;;;;;;;12.68;62.00;100580.47;2152921;82;34012;-66
2022/02/10 10:49:55;;;;;;;13.65;9.35;;;;;;;12.28;60.70;100533.27;2124668;82;27696;-64
2022/02/10 10:53:08;;;;;;;15.83;9.53;;;;;;;12.20;60.61;100523.88;2123514;82;31116;-65
2022/02/10 10:56:14;;;;;;;18.23;9.50;;;;;;;12.15;60.70;100522.34;2016314;88;31172;-65
2022/02/10 11:36:36;;;;;;;11.95;5.15;;;;;;;12.33;60.25;100416.66;2042451;85;30688;-64
2022/02/10 11:39:43;;;;;;;8.08;5.33;;;;;;;12.47;60.17;100431.53;2044581;85;27874;-65
2022/02/10 11:42:46;;;;;;;7.87;4.45;;;;;;;12.53;59.84;100419.56;2044270;87;29067;-64
2022/02/10 12:29:32;;;;;;;8.13;4.67;;;;;;;12.70;58.70;100379.16;2122691;83;34185;-65
2022/02/10 12:44:11;;;;;;;13.85;7.53;;;;;;;13.10;57.32;100316.80;2126061;83;29466;-65
2022/02/10 13:35:10;;;;;;;12.68;6.45;;;;;;;13.07;55.79;100249.28;2044271;85;29436;-66
2022/02/10 14:13:49;;;;;;;16.27;8.58;;;;;;;12.23;55.50;100214.39;2054359;85;29804;-70
2022/02/10 14:16:50;;;;;;;18.45;8.18;;;;;;;12.13;55.42;100210.02;2098519;83;30633;-68
2022/02/10 14:23:06;;;;;;;9.13;4.85;;;;;;;11.98;55.89;100209.06;1945115;91;29372;-70
2022/02/10 14:29:06;;;;;;;8.35;5.55;;;;;;;11.81;55.88;100204.64;1945799;89;29547;-68
2022/02/10 14:32:11;;;;;;;11.00;4.87;;;;;;;11.75;56.17;100201.44;1946011;89;31201;-67
2022/02/10 14:35:23;;;;;;;;;;;;;;;11.69;56.25;100209.33;1965143;90;34150;-65
2022/02/10 14:38:42;;;;;;;6.42;3.98;;;;;;;11.63;56.42;100209.20;2007251;86;29695;-70
2022/02/10 15:35:47;;;;;;;11.68;6.10;;;;;;;10.72;58.12;100227.45;2021735;87;28417;-67
2022/02/10 16:16:38;;;;;;;11.10;5.53;;;;;;;10.66;57.97;100238.02;2033079;86;30207;-67
2022/02/10 16:18:50;;;;;;;18.57;10.23;;;;;;;10.64;57.99;100238.56;2022674;86;27761;-67
2022/02/10 16:22:04;;;;;;;18.65;11.28;;;;;;;10.62;57.83;100239.99;2035890;87;28663;-66
2022/02/10 16:25:04;;;;;;;27.58;13.53;;;;;;;10.62;58.02;100248.03;2036003;86;31108;-67
2022/02/10 16:31:13;;;;;;;25.23;13.15;;;;;;;10.61;57.95;100244.07;2010385;87;29346;-67
2022/02/10 16:34:14;;;;;;;15.93;10.50;;;;;;;10.61;58.03;100244.95;2012334;86;27764;-66
2022/02/10 16:37:17;;;;;;;20.50;10.95;;;;;;;10.61;57.97;100244.07;2012162;86;28644;-67
2022/02/10 16:40:21;;;;;;;20.25;11.35;;;;;;;10.61;58.06;100250.31;1991001;87;31798;-66
2022/02/10 16:43:24;;;;;;;21.37;12.90;;;;;;;10.61;58.03;100253.45;2027040;87;32989;-67
2022/02/10 16:46:26;;;;;;;25.20;15.75;;;;;;;10.64;58.03;100251.50;2114627;84;30197;-67
2022/02/10 16:49:28;;;;;;;21.68;12.33;;;;;;;10.64;57.97;100250.16;2083712;84;27811;-67
2022/02/10 16:52:39;;;;;;;18.20;9.95;;;;;;;10.63;57.96;100245.75;2105230;80;29754;-68
2022/02/10 16:56:00;;;;;;;45.15;23.18;;;;;;;10.62;58.02;100244.02;2126290;81;31027;-67
2022/02/10 16:59:13;;;;;;;27.35;15.53;;;;;;;10.64;57.95;100250.62;2175890;81;32983;-67
2022/02/10 17:28:01;;;;;;;16.45;8.95;;;;;;;10.45;58.54;100284.17;2094906;83;32267;-65
2022/02/10 17:31:19;;;;;;;17.70;9.50;;;;;;;10.37;58.46;100286.31;2120180;83;33133;-64
2022/02/10 17:34:21;;;;;;;13.20;7.95;;;;;;;10.32;58.61;100292.78;2120193;83;29363;-65
2022/02/10 17:51:25;;;;;;;13.65;7.47;;;;;;;10.16;58.74;100303.84;2114222;84;33006;-66
2022/02/10 17:53:28;;;;;;;13.00;8.05;;;;;;;10.06;58.74;100318.58;2008939;88;27732;-65
2022/02/10 17:56:21;;;;;;;31.57;15.10;;;;;;;9.99;58.71;100317.55;2033286;85;28748;-66
2022/02/10 17:59:23;;;;;;;26.55;11.45;;;;;;;9.92;58.93;100321.92;2034252;87;31097;-65
2022/02/10 18:02:25;;;;;;;71.60;26.70;;;;;;;9.85;59.05;100322.20;2019353;87;33669;-63
2022/02/10 18:09:04;;;;;;;42.33;18.87;;;;;;;9.75;59.32;100330.71;2102855;84;27806;-63
2022/02/10 18:15:19;;;;;;;;;;;;;;;9.58;59.66;100325.20;2105644;84;31412;-64
2022/02/10 18:18:27;;;;;;;25.62;14.98;;;;;;;9.52;59.81;100331.27;2103458;84;33530;-64
2022/02/10 18:21:35;;;;;;;18.27;11.68;;;;;;;9.47;59.95;100328.81;2072097;84;29372;-65
2022/02/10 18:24:49;;;;;;;16.35;10.48;;;;;;;9.41;60.14;100333.97;2026780;87;27778;-66
2022/02/10 18:27:42;;;;;;;14.30;9.48;;;;;;;9.34;60.29;100337.87;2066822;81;28663;-65
2022/02/10 19:06:56;;;;;;;23.70;11.78;;;;;;;8.86;61.93;100368.40;2140287;82;32964;-65
2022/02/10 19:12:45;;;;;;;27.60;12.65;;;;;;;8.81;62.09;100377.95;2160736;81;28384;-67
2022/02/10 19:15:49;;;;;;;22.85;12.43;;;;;;;8.80;62.33;100377.54;2132422;82;28700;-68
2022/02/10 19:18:52;;;;;;;18.37;11.05;;;;;;;8.76;62.29;100371.46;2228076;79;31854;-67
2022/02/10 19:21:54;;;;;;;18.27;10.60;;;;;;;8.73;62.38;100384.94;2203494;80;33750;-66
2022/02/10 19:24:56;;;;;;;19.23;11.60;;;;;;;8.68;62.46;100385.61;2200947;80;29313;-68
2022/02/10 19:27:58;;;;;;;20.45;11.10;;;;;;;8.65;62.52;100387.92;2214117;79;28212;-71
2022/02/10 19:31:01;;;;;;;16.97;10.75;;;;;;;8.61;62.66;100382.29;2223316;79;28652;-67
2022/02/10 19:34:09;;;;;;;23.27;10.78;;;;;;;8.57;62.74;100410.07;2201427;79;31051;-70
2022/02/10 19:37:14;;;;;;;21.57;10.35;;;;;;;8.53;62.83;100403.10;2208008;79;33018;-67
2022/02/10 19:40:15;;;;;;;18.17;11.30;;;;;;;8.48;62.89;100404.62;2211011;79;29347;-68
2022/02/10 19:43:18;;;;;;;16.70;11.55;;;;;;;8.44;63.05;100414.13;2201148;79;28514;-67
2022/02/10 19:46:20;;;;;;;20.23;11.10;;;;;;;8.39;63.19;100421.44;2199418;79;28875;-68
2022/02/10 19:49:24;;;;;;;17.73;10.70;;;;;;;8.33;63.32;100422.06;2201492;79;31077;-68
2022/02/10 19:52:26;;;;;;;17.85;10.88;;;;;;;8.28;63.46;100428.52;2192255;80;32996;-68
2022/02/10 19:55:34;;;;;;;15.95;10.30;;;;;;;8.23;63.58;100434.03;2193480;79;28802;-69
2022/02/10 19:58:35;;;;;;;18.02;10.65;;;;;;;8.20;63.96;100438.14;2184490;80;27618;-68
2022/02/10 20:01:37;;;;;;;19.37;10.55;;;;;;;8.17;63.96;100440.48;2186588;79;28656;-68
2022/02/10 20:04:39;;;;;;;19.98;11.25;;;;;;;8.14;64.07;100434.36;2194177;79;31193;-68
2022/02/10 20:07:47;;;;;;;18.37;10.63;;;;;;;8.13;64.29;100443.30;2192787;80;33683;-67
2022/02/10 20:10:50;;;;;;;18.80;10.68;;;;;;;8.13;64.38;100441.95;2193521;79;29408;-68
2022/02/10 20:13:50;;;;;;;21.25;11.95;;;;;;;8.11;64.49;100451.37;2192497;79;27846;-67
2022/02/10 20:16:54;;;;;;;21.20;11.22;;;;;;;8.10;64.62;100451.44;2193726;79;28853;-67
2022/02/10 20:19:55;;;;;;;20.37;11.68;;;;;;;8.09;64.79;100457.70;2193414;79;32073;-69
2022/02/10 20:22:57;;;;;;;18.67;11.60;;;;;;;8.06;64.95;100456.88;2193417;79;33027;-70
2022/02/10 20:26:00;;;;;;;21.95;12.90;;;;;;;8.08;64.95;100457.29;2192899;80;29334;-70
2022/02/10 20:29:03;;;;;;;19.82;13.18;;;;;;;8.09;65.02;100463.03;2194100;79;27672;-68
2022/02/10 20:32:07;;;;;;;21.50;13.20;;;;;;;8.07;65.15;100460.41;2192727;80;28761;-67
2022/02/10 20:35:11;;;;;;;23.40;13.78;;;;;;;8.08;65.19;100468.81;2193380;79;31044;-68
2022/02/10 20:38:16;;;;;;;23.32;14.73;;;;;;;8.08;65.30;100459.95;2192470;80;32912;-66
2022/02/10 20:41:18;;;;;;;21.33;14.33;;;;;;;8.05;65.36;100471.59;2193049;79;30017;-67
2022/02/10 20:44:25;;;;;;;24.02;15.58;;;;;;;8.03;65.47;100462.77;2193090;79;27773;-69
2022/02/10 20:47:27;;;;;;;22.07;14.07;;;;;;;8.04;65.58;100460.06;2192980;79;28821;-68
2022/02/10 20:50:32;;;;;;;23.03;13.87;;;;;;;8.03;66.02;100474.33;2194223;79;27790;-63
2022/02/10 20:53:36;;;;;;;21.65;13.50;;;;;;;8.03;66.02;100474.33;2201444;79;33067;-68
2022/02/10 20:56:38;;;;;;;23.83;13.30;;;;;;;8.03;65.84;100475.66;2211334;79;28613;-68
2022/02/10 20:59:43;;;;;;;26.68;15.83;;;;;;;8.03;65.90;100476.11;2205112;79;27704;-70
2022/02/10 21:02:48;;;;;;;26.50;15.45;;;;;;;8.05;65.99;100471.59;2201363;79;29585;-66
2022/02/10 21:05:53;;;;;;;28.10;16.50;;;;;;;8.05;66.09;100473.81;2201932;79;31877;-67
2022/02/10 21:08:59;;;;;;;26.40;14.68;;;;;;;8.05;66.16;100471.59;2201497;79;33741;-69
2022/02/10 21:11:58;;;;;;;23.52;14.75;;;;;;;8.03;66.22;100478.33;2193044;79;29536;-68
2022/02/10 21:15:05;;;;;;;22.15;15.75;;;;;;;8.04;66.42;100469.40;2202351;79;28006;-69
2022/02/10 21:18:06;;;;;;;27.67;14.68;;;;;;;8.01;66.31;100473.51;2202797;79;29479;-66
2022/02/10 21:21:13;;;;;;;22.22;14.70;;;;;;;8.00;66.43;100473.09;2236993;79;31143;-68
2022/02/10 21:24:15;;;;;;;23.92;14.93;;;;;;;7.99;66.50;100478.50;2237070;79;33162;-67
2022/02/10 21:30:19;;;;;;;24.55;15.13;;;;;;;7.99;66.62;100485.17;2200724;80;28282;-67
2022/02/10 21:33:27;;;;;;;23.62;14.47;;;;;;;8.00;66.69;100486.92;2200627;80;29498;-67
2022/02/10 21:43:47;;;;;;;27.35;16.95;;;;;;;7.94;67.56;100493.34;2200854;80;29351;-67
2022/02/10 21:52:49;;;;;;;13.60;8.28;;;;;;;7.81;68.31;100523.57;2171982;80;31944;-66
2022/02/10 22:08:46;;;;;;;5.15;2.90;;;;;;;7.13;69.23;100563.11;1973034;89;31045;-66
2022/02/10 22:18:23;;;;;;;3.22;1.92;;;;;;;6.77;69.83;100565.52;1977683;90;28027;-66
2022/02/10 22:20:56;;;;;;;2.37;2.17;;;;;;;6.71;70.04;100575.01;1978078;90;28718;-66
2022/02/10 22:23:50;;;;;;;1.70;1.60;;;;;;;6.63;70.12;100573.02;1978160;89;31042;-65
2022/02/10 22:26:53;;;;;;;2.12;1.57;;;;;;;6.57;70.09;100568.74;1978198;90;33139;-66
2022/02/10 22:30:03;;;;;;;1.30;1.17;;;;;;;6.50;70.24;100572.52;1978192;90;29702;-65
2022/02/10 22:33:19;;;;;;;4.70;1.77;;;;;;;6.44;70.29;100566.02;1978375;90;27823;-66
2022/02/10 22:36:11;;;;;;;2.50;1.35;;;;;;;6.38;70.36;100555.95;2002130;86;29474;-66
2022/02/10 22:39:13;;;;;;;1.77;1.62;;;;;;;6.34;70.47;100558.75;2108658;83;31176;-65
2022/02/10 22:42:21;;;;;;;3.05;1.75;;;;;;;6.30;70.47;100553.09;2139876;83;33826;-66
2022/02/10 22:45:20;;;;;;;2.20;1.92;;;;;;;6.27;70.67;100546.55;2144307;81;30208;-66
2022/02/10 22:48:21;;;;;;;2.42;1.80;;;;;;;6.25;70.66;100547.05;2162604;82;27681;-67
2022/02/10 22:51:26;;;;;;;3.08;2.58;;;;;;;6.23;70.77;100549.73;2173019;80;28623;-66
2022/02/10 22:54:28;;;;;;;2.75;1.98;;;;;;;6.22;70.90;100546.66;2158632;80;32067;-68
2022/02/10 22:57:29;;;;;;;5.25;3.05;;;;;;;6.20;70.95;100555.16;2157268;81;33133;-67
2022/02/10 23:00:35;;;;;;;15.68;7.00;;;;;;;6.19;70.98;100559.59;2162687;81;30474;-66
2022/02/10 23:03:37;;;;;;;12.93;6.60;;;;;;;6.18;71.05;100556.98;2115277;84;27701;-67
2022/02/10 23:06:40;;;;;;;7.20;3.75;;;;;;;6.17;71.10;100560.09;2162126;82;43016;-69
2022/02/10 23:12:46;;;;;;;6.43;3.83;;;;;;;6.16;71.23;100568.98;2162100;81;33005;-68
2022/02/10 23:15:50;;;;;;;6.28;3.52;;;;;;;6.16;71.33;100568.13;2119679;84;29592;-66
2022/02/10 23:18:53;;;;;;;8.43;4.95;;;;;;;6.17;71.35;100573.39;2161340;82;27701;-69
2022/02/10 23:21:54;;;;;;;10.58;5.30;;;;;;;6.18;71.38;100580.45;2119569;82;28725;-67
2022/02/10 23:24:56;;;;;;;12.07;5.95;;;;;;;6.19;71.45;100579.55;2157224;81;31019;-67
2022/02/10 23:27:59;;;;;;;12.98;6.45;;;;;;;6.21;71.48;100587.47;2157994;82;33781;-66
2022/02/10 23:31:05;;;;;;;8.73;5.10;;;;;;;6.23;71.52;100586.98;2157986;82;29417;-66
2022/02/10 23:34:06;;;;;;;6.83;3.60;;;;;;;6.22;71.54;100580.80;2159183;81;27625;-66
2022/02/10 23:37:08;;;;;;;10.43;3.70;;;;;;;6.22;71.53;100587.89;2158016;82;28678;-67
2022/02/10 23:40:11;;;;;;;6.00;3.62;;;;;;;6.20;71.51;100591.94;2157930;82;31021;-67
2022/02/10 23:43:13;;;;;;;6.22;3.70;;;;;;;6.20;71.59;100604.38;2174464;81;32991;-67
2022/02/10 23:46:15;;;;;;;5.70;4.12;;;;;;;6.19;71.62;100590.19;2178107;81;29340;-67
2022/02/10 23:49:20;;;;;;;7.67;4.40;;;;;;;6.20;71.67;100595.92;2178169;81;27621;-67
2022/02/10 23:52:24;;;;;;;4.92;3.58;;;;;;;6.19;71.71;100580.88;2177666;81;29596;-67
2022/02/10 23:55:33;;;;;;;7.90;4.30;;;;;;;6.20;71.75;100582.63;2178001;81;31146;-67
2022/02/10 23:58:50;;;;;;;9.85;6.62;;;;;;;6.19;71.79;100580.88;2177502;81;33133;-67
